»·PEaware :: N242GR KLAS-KSNA

N242GR :: KLAS-KSNA

FLIGHT INFORMATION

Flight Status: Arrived
Operator: Privately registered:
United States
More flights under this callsign
Pilot: Ryan P. (10075)
Aircraft: PIPER PA-31/31P NAVAJO CHIEFTAIN
(PA31)
More flights by this aircraft type
Origin: KLAS McCarran Intl
United States
Destination: KSNA John Wayne-Orange Co
United States
More flights between these airports :: More routes between these airports
Route: +LAS V538 GFS V210 HEC V442 PDZ PDZ270 RNDAL V363 POXKU V8 SLI
File this flight plan on PilotEdge
Remarks:
Altitude:
(Current/Filed)
14,000ft
Speed:
(Current/Filed)
200kts
Departed: 18-May-20 02:01 PM
Arrived: 18-May-20 03:29 PM
Distance/Time
Traveled:
197nm/1:28
Distance/Time
To Go:
Arrived

Flight Plot

Page will automatically refresh every two minutes.


Map Options




Map Legend


Flown Route
Filed Route
Departure Airport
Arrival Airport
Navaid (VOR, NDB)
Fix

Horizontal Profiles

Position Reports

Time Latitude Longitude Heading Altitude Ground
Speed
18-May-20 13:32 36.088636 -115.165744 0 2138ft 0kts
18-May-20 13:33 36.088636 -115.165744 0 2138ft 0kts
18-May-20 13:34 36.088636 -115.165744 0 2138ft 0kts
18-May-20 13:35 36.088636 -115.165744 0 2138ft 0kts
18-May-20 13:36 36.088636 -115.165744 0 2138ft 0kts
18-May-20 13:37 36.088636 -115.165744 0 2138ft 0kts
18-May-20 13:38 36.088636 -115.165744 0 2138ft 0kts
18-May-20 13:39 36.088636 -115.165744 0 2138ft 0kts
18-May-20 13:40 36.088636 -115.165744 0 2138ft 0kts
18-May-20 13:41 36.088636 -115.165744 0 2138ft 0kts
18-May-20 13:42 36.088636 -115.165744 0 2138ft 0kts
18-May-20 13:43 36.088636 -115.165744 0 2138ft 0kts
18-May-20 13:44 36.088636 -115.165744 0 2138ft 0kts
18-May-20 13:45 36.088636 -115.165744 0 2138ft 0kts
18-May-20 13:46 36.088636 -115.165744 0 2138ft 0kts
18-May-20 13:47 36.088636 -115.165744 0 2138ft 0kts
18-May-20 13:48 36.088636 -115.165744 0 2138ft 0kts
18-May-20 13:49 36.088636 -115.165744 0 2138ft 0kts
18-May-20 13:50 36.088636 -115.165744 0 2138ft 0kts
18-May-20 13:52 36.088636 -115.165744 0 2138ft 0kts
18-May-20 13:53 36.088636 -115.165744 0 2138ft 0kts
18-May-20 13:54 36.088636 -115.165744 0 2138ft 0kts
18-May-20 13:55 36.090021 -115.164385 18 2130ft 14kts
18-May-20 13:56 36.094290 -115.161910 24 2109ft 20kts
18-May-20 13:57 36.099556 -115.158605 60 2089ft 20kts
18-May-20 13:58 36.099848 -115.157595 80 2085ft 0kts
18-May-20 13:59 36.099848 -115.157595 80 2085ft 0kts
18-May-20 14:00 36.099850 -115.157499 96 2085ft 3kts
18-May-20 14:01 36.085799 -115.164416 206 2838ft 100kts
18-May-20 14:02 36.056964 -115.171326 187 4624ft 134kts
18-May-20 14:03 36.017370 -115.173571 185 6236ft 151kts
18-May-20 14:04 35.973711 -115.167961 172 7635ft 159kts
18-May-20 14:05 35.930407 -115.154161 182 8958ft 156kts
18-May-20 14:06 35.881159 -115.158276 184 9092ft 188kts
18-May-20 14:06 35.835702 -115.159890 183 9090ft 193kts
18-May-20 14:08 35.772215 -115.161457 183 9087ft 187kts
18-May-20 14:09 35.719756 -115.162748 183 9089ft 184kts
18-May-20 14:09 35.676189 -115.163768 183 9090ft 184kts
18-May-20 14:10 35.624022 -115.165037 183 9090ft 183kts
18-May-20 14:12 35.563577 -115.166442 183 9261ft 175kts
18-May-20 14:12 35.525436 -115.167357 183 10252ft 152kts
18-May-20 14:13 35.487220 -115.168288 182 11369ft 141kts
18-May-20 14:14 35.452365 -115.168994 182 12456ft 133kts
18-May-20 14:15 35.414479 -115.169732 183 13673ft 139kts
18-May-20 14:16 35.371812 -115.170722 183 14091ft 165kts
18-May-20 14:17 35.324484 -115.171937 183 14076ft 165kts
18-May-20 14:18 35.277596 -115.173100 182 14059ft 165kts
18-May-20 14:19 35.230832 -115.174234 182 14042ft 165kts
18-May-20 14:20 35.183411 -115.175357 182 14030ft 165kts
18-May-20 14:21 35.137467 -115.182003 224 14041ft 169kts
18-May-20 14:22 35.117171 -115.237057 242 14045ft 178kts
18-May-20 14:23 35.101041 -115.296747 243 14054ft 179kts
18-May-20 14:24 35.085696 -115.356486 244 14058ft 180kts
18-May-20 14:25 35.070264 -115.416748 244 14061ft 183kts
18-May-20 14:26 35.054819 -115.477118 244 14071ft 183kts
18-May-20 14:27 35.039228 -115.537273 245 14085ft 181kts
18-May-20 14:28 35.024010 -115.596728 247 14109ft 180kts
18-May-20 14:29 35.009120 -115.654663 246 14139ft 179kts
18-May-20 14:30 34.993758 -115.714100 246 14154ft 180kts
18-May-20 14:31 34.978206 -115.774130 247 14147ft 180kts
18-May-20 14:32 34.962702 -115.833846 247 14142ft 179kts
18-May-20 14:33 34.946954 -115.894350 247 14039ft 180kts
18-May-20 14:34 34.931244 -115.954599 247 14040ft 179kts
18-May-20 14:35 34.915531 -116.014700 247 14045ft 178kts
18-May-20 14:36 34.899925 -116.074250 247 14049ft 178kts
18-May-20 14:37 34.884345 -116.133571 248 14059ft 178kts
18-May-20 14:38 34.868603 -116.193423 248 14055ft 178kts
18-May-20 14:39 34.852769 -116.253471 248 14040ft 178kts
18-May-20 14:40 34.836993 -116.313145 248 14026ft 178kts
18-May-20 14:41 34.821246 -116.372572 248 14013ft 178kts
18-May-20 14:42 34.805647 -116.431313 248 14004ft 178kts
18-May-20 14:43 34.779883 -116.483056 226 14004ft 174kts
18-May-20 14:44 34.754770 -116.535671 249 14004ft 178kts
18-May-20 14:45 34.736679 -116.593775 244 14003ft 177kts
18-May-20 14:46 34.717574 -116.650976 244 14003ft 177kts
18-May-20 14:47 34.698655 -116.707233 244 14006ft 177kts
18-May-20 14:48 34.679287 -116.764688 244 14006ft 177kts
18-May-20 14:49 34.659942 -116.821961 244 14006ft 177kts
18-May-20 14:50 34.640565 -116.879216 244 14005ft 177kts
18-May-20 14:51 34.621561 -116.935275 244 14018ft 176kts
18-May-20 14:52 34.602494 -116.991421 244 14033ft 174kts
18-May-20 14:53 34.583684 -117.046700 243 14024ft 174kts
18-May-20 14:54 34.564994 -117.101529 243 14025ft 171kts
18-May-20 14:55 34.541872 -117.149765 213 14035ft 167kts
18-May-20 14:56 34.501194 -117.177682 210 14018ft 169kts
18-May-20 14:57 34.455896 -117.205832 208 12865ft 194kts
18-May-20 14:58 34.406618 -117.235787 208 11977ft 190kts
18-May-20 14:59 34.360440 -117.263756 208 11846ft 189kts
18-May-20 15:00 34.310514 -117.294002 208 10658ft 209kts
18-May-20 15:01 34.257679 -117.325894 209 9448ft 215kts
18-May-20 15:02 34.206215 -117.356942 209 8972ft 201kts
18-May-20 15:03 34.158242 -117.385911 209 8978ft 196kts
18-May-20 15:04 34.110187 -117.414871 209 8984ft 196kts
18-May-20 15:05 34.062719 -117.443407 209 8990ft 196kts
18-May-20 15:06 34.015076 -117.472021 209 8597ft 210kts
18-May-20 15:07 33.970604 -117.498661 209 8008ft 204kts
18-May-20 15:08 33.924435 -117.527875 226 8008ft 189kts
18-May-20 15:09 33.905369 -117.582354 253 8009ft 183kts
18-May-20 15:10 33.907378 -117.634631 299 7917ft 187kts
18-May-20 15:11 33.936977 -117.685451 299 7044ft 205kts
18-May-20 15:12 33.967972 -117.739369 299 5907ft 204kts
18-May-20 15:13 33.977746 -117.791391 210 5221ft 180kts
18-May-20 15:14 33.929696 -117.784170 181 5186ft 175kts
18-May-20 15:15 33.882350 -117.782930 182 4102ft 185kts
18-May-20 15:16 33.839787 -117.781866 182 3022ft 157kts
18-May-20 15:17 33.808200 -117.784619 233 3013ft 114kts
18-May-20 15:18 33.801389 -117.814808 266 3052ft 123kts
18-May-20 15:19 33.801649 -117.856543 263 2999ft 162kts
18-May-20 15:20 33.831324 -117.856653 31 3165ft 182kts
18-May-20 15:21 33.859074 -117.822460 105 3070ft 189kts
18-May-20 15:22 33.837785 -117.777862 176 2926ft 178kts
18-May-20 15:23 33.807799 -117.801959 203 3005ft 169kts
18-May-20 15:24 33.772389 -117.808169 213 1858ft 136kts
18-May-20 15:25 33.747322 -117.823937 209 1595ft 122kts
18-May-20 15:26 33.721445 -117.840441 207 894ft 135kts
18-May-20 15:27 33.695764 -117.856190 208 395ft 137kts
18-May-20 15:28 33.677990 -117.867871 284 53ft 20kts
18-May-20 15:29 33.678124 -117.868367 287 53ft 0kts
18-May-20 15:30 33.678097 -117.868723 242 53ft 18kts

Navigation Log

Ident Type
Flight plan parsing failed, navigation log unavailable